sensor_id;sensor_type;location;lat;lon;timestamp;P1;durP1;ratioP1;P2;durP2;ratioP2
67344;SDS011;54230;52.402;6.276;2023-04-01T00:00:00;6.7;;;3.2;;
67344;SDS011;54230;52.402;6.276;2023-04-01T00:05:00;6.3;;;3.4;;
67344;SDS011;54230;52.402;6.276;2023-04-01T00:10:00;7.3;;;3.5;;
67344;SDS011;54230;52.402;6.276;2023-04-01T00:15:00;7.7;;;3.3;;
67344;SDS011;54230;52.402;6.276;2023-04-01T00:20:00;6.7;;;3.3;;
67344;SDS011;54230;52.402;6.276;2023-04-01T00:25:00;7.0;;;3.3;;
67344;SDS011;54230;52.402;6.276;2023-04-01T00:30:00;6.9;;;3.2;;
67344;SDS011;54230;52.402;6.276;2023-04-01T00:35:00;6.1;;;3.2;;
67344;SDS011;54230;52.402;6.276;2023-04-01T00:40:00;5.9;;;3.2;;
67344;SDS011;54230;52.402;6.276;2023-04-01T00:50:00;7.7;;;3.5;;
67344;SDS011;54230;52.402;6.276;2023-04-01T00:55:00;6.0;;;3.3;;
67344;SDS011;54230;52.402;6.276;2023-04-01T01:00:00;6.5;;;3.6;;
67344;SDS011;54230;52.402;6.276;2023-04-01T01:05:00;8.2;;;3.5;;
67344;SDS011;54230;52.402;6.276;2023-04-01T01:10:02;7.4;;;3.3;;
67344;SDS011;54230;52.402;6.276;2023-04-01T01:15:02;8.1;;;3.4;;
67344;SDS011;54230;52.402;6.276;2023-04-01T01:25:06;6.1;;;3.4;;
67344;SDS011;54230;52.402;6.276;2023-04-01T01:30:04;7.3;;;3.5;;
67344;SDS011;54230;52.402;6.276;2023-04-01T01:35:07;8.2;;;3.9;;
67344;SDS011;54230;52.402;6.276;2023-04-01T01:40:01;8.2;;;3.6;;
67344;SDS011;54230;52.402;6.276;2023-04-01T01:45:00;8.9;;;4.1;;
67344;SDS011;54230;52.402;6.276;2023-04-01T01:50:00;9.0;;;4.1;;
67344;SDS011;54230;52.402;6.276;2023-04-01T01:55:00;8.5;;;4.4;;
67344;SDS011;54230;52.402;6.276;2023-04-01T02:00:02;9.1;;;4.5;;
67344;SDS011;54230;52.402;6.276;2023-04-01T02:05:00;9.3;;;4.6;;
67344;SDS011;54230;52.402;6.276;2023-04-01T02:10:00;9.6;;;4.5;;
67344;SDS011;54230;52.402;6.276;2023-04-01T02:15:01;9.6;;;4.5;;
67344;SDS011;54230;52.402;6.276;2023-04-01T02:20:01;8.5;;;4.6;;
67344;SDS011;54230;52.402;6.276;2023-04-01T02:25:01;13.1;;;5.2;;
67344;SDS011;54230;52.402;6.276;2023-04-01T02:30:00;10.3;;;5.2;;
67344;SDS011;54230;52.402;6.276;2023-04-01T02:35:00;12.8;;;5.5;;
67344;SDS011;54230;52.402;6.276;2023-04-01T02:40:00;11.2;;;5.2;;
67344;SDS011;54230;52.402;6.276;2023-04-01T02:45:00;11.6;;;5.5;;
67344;SDS011;54230;52.402;6.276;2023-04-01T02:50:00;10.5;;;5.2;;
67344;SDS011;54230;52.402;6.276;2023-04-01T02:55:00;10.1;;;4.8;;
67344;SDS011;54230;52.402;6.276;2023-04-01T03:00:00;12.2;;;5.9;;
67344;SDS011;54230;52.402;6.276;2023-04-01T03:05:00;12.3;;;6.0;;
67344;SDS011;54230;52.402;6.276;2023-04-01T03:10:00;12.1;;;5.7;;
67344;SDS011;54230;52.402;6.276;2023-04-01T03:15:00;13.4;;;6.1;;
67344;SDS011;54230;52.402;6.276;2023-04-01T03:20:00;13.9;;;6.9;;
67344;SDS011;54230;52.402;6.276;2023-04-01T03:25:00;14.7;;;6.9;;
67344;SDS011;54230;52.402;6.276;2023-04-01T03:30:00;12.9;;;6.7;;
67344;SDS011;54230;52.402;6.276;2023-04-01T03:35:00;15.5;;;7.1;;
67344;SDS011;54230;52.402;6.276;2023-04-01T03:40:00;16.0;;;7.2;;
67344;SDS011;54230;52.402;6.276;2023-04-01T03:45:00;17.3;;;8.4;;
67344;SDS011;54230;52.402;6.276;2023-04-01T03:50:00;20.4;;;9.1;;
67344;SDS011;54230;52.402;6.276;2023-04-01T03:55:00;24.6;;;10.0;;
67344;SDS011;54230;52.402;6.276;2023-04-01T04:00:00;24.9;;;10.4;;
67344;SDS011;54230;52.402;6.276;2023-04-01T04:05:00;23.1;;;10.3;;
67344;SDS011;54230;52.402;6.276;2023-04-01T04:10:00;22.3;;;9.9;;
67344;SDS011;54230;52.402;6.276;2023-04-01T04:15:00;20.8;;;9.2;;
67344;SDS011;54230;52.402;6.276;2023-04-01T04:20:00;18.2;;;9.1;;
67344;SDS011;54230;52.402;6.276;2023-04-01T04:25:00;16.0;;;8.4;;
67344;SDS011;54230;52.402;6.276;2023-04-01T04:30:00;16.7;;;8.2;;
67344;SDS011;54230;52.402;6.276;2023-04-01T04:35:00;17.8;;;8.4;;
67344;SDS011;54230;52.402;6.276;2023-04-01T04:40:00;18.8;;;8.0;;
67344;SDS011;54230;52.402;6.276;2023-04-01T04:45:00;15.8;;;8.4;;
67344;SDS011;54230;52.402;6.276;2023-04-01T04:50:00;18.2;;;7.9;;
67344;SDS011;54230;52.402;6.276;2023-04-01T04:55:00;15.8;;;8.5;;
67344;SDS011;54230;52.402;6.276;2023-04-01T05:00:00;15.9;;;8.1;;
67344;SDS011;54230;52.402;6.276;2023-04-01T05:05:00;16.0;;;8.0;;
67344;SDS011;54230;52.402;6.276;2023-04-01T05:10:00;15.8;;;7.6;;
67344;SDS011;54230;52.402;6.276;2023-04-01T05:15:00;14.3;;;7.3;;
67344;SDS011;54230;52.402;6.276;2023-04-01T05:20:00;13.4;;;7.1;;
67344;SDS011;54230;52.402;6.276;2023-04-01T05:25:00;15.3;;;7.6;;
67344;SDS011;54230;52.402;6.276;2023-04-01T05:30:00;14.3;;;7.3;;
67344;SDS011;54230;52.402;6.276;2023-04-01T05:35:00;12.8;;;6.7;;
67344;SDS011;54230;52.402;6.276;2023-04-01T05:40:00;14.5;;;6.7;;
67344;SDS011;54230;52.402;6.276;2023-04-01T05:45:00;13.2;;;6.5;;
67344;SDS011;54230;52.402;6.276;2023-04-01T05:50:00;12.2;;;6.9;;
67344;SDS011;54230;52.402;6.276;2023-04-01T05:55:00;14.0;;;7.0;;
67344;SDS011;54230;52.402;6.276;2023-04-01T06:00:00;14.8;;;7.0;;
67344;SDS011;54230;52.402;6.276;2023-04-01T06:05:02;11.5;;;6.1;;
67344;SDS011;54230;52.402;6.276;2023-04-01T06:10:00;14.2;;;7.1;;
67344;SDS011;54230;52.402;6.276;2023-04-01T06:15:04;12.3;;;6.7;;
67344;SDS011;54230;52.402;6.276;2023-04-01T06:20:02;12.7;;;6.9;;
67344;SDS011;54230;52.402;6.276;2023-04-01T06:30:02;10.1;;;5.5;;
67344;SDS011;54230;52.402;6.276;2023-04-01T06:35:05;10.6;;;5.8;;
67344;SDS011;54230;52.402;6.276;2023-04-01T06:40:06;11.8;;;6.7;;
67344;SDS011;54230;52.402;6.276;2023-04-01T06:45:03;13.6;;;6.5;;
67344;SDS011;54230;52.402;6.276;2023-04-01T06:50:01;14.9;;;6.7;;
67344;SDS011;54230;52.402;6.276;2023-04-01T06:55:02;16.7;;;7.1;;
67344;SDS011;54230;52.402;6.276;2023-04-01T07:00:00;14.8;;;7.4;;
67344;SDS011;54230;52.402;6.276;2023-04-01T07:05:00;15.1;;;6.6;;
67344;SDS011;54230;52.402;6.276;2023-04-01T07:10:02;12.9;;;6.6;;
67344;SDS011;54230;52.402;6.276;2023-04-01T07:15:01;14.5;;;7.1;;
67344;SDS011;54230;52.402;6.276;2023-04-01T07:20:02;15.6;;;6.8;;
67344;SDS011;54230;52.402;6.276;2023-04-01T07:25:01;14.0;;;7.3;;
67344;SDS011;54230;52.402;6.276;2023-04-01T07:30:00;17.3;;;8.2;;
67344;SDS011;54230;52.402;6.276;2023-04-01T07:35:03;18.6;;;7.7;;
67344;SDS011;54230;52.402;6.276;2023-04-01T07:40:03;19.6;;;8.0;;
67344;SDS011;54230;52.402;6.276;2023-04-01T07:45:02;16.5;;;6.9;;
67344;SDS011;54230;52.402;6.276;2023-04-01T07:50:02;16.4;;;7.5;;
67344;SDS011;54230;52.402;6.276;2023-04-01T07:55:01;18.1;;;8.1;;
67344;SDS011;54230;52.402;6.276;2023-04-01T08:00:02;16.5;;;7.7;;
67344;SDS011;54230;52.402;6.276;2023-04-01T08:05:03;14.8;;;7.4;;
67344;SDS011;54230;52.402;6.276;2023-04-01T08:10:02;15.3;;;7.4;;
67344;SDS011;54230;52.402;6.276;2023-04-01T08:15:04;12.5;;;6.4;;
67344;SDS011;54230;52.402;6.276;2023-04-01T08:20:05;13.0;;;6.9;;
67344;SDS011;54230;52.402;6.276;2023-04-01T08:25:01;12.5;;;6.4;;
67344;SDS011;54230;52.402;6.276;2023-04-01T08:30:02;13.3;;;6.4;;
67344;SDS011;54230;52.402;6.276;2023-04-01T08:35:04;12.8;;;6.4;;
67344;SDS011;54230;52.402;6.276;2023-04-01T08:40:02;12.6;;;6.3;;
67344;SDS011;54230;52.402;6.276;2023-04-01T08:50:05;12.1;;;6.0;;
67344;SDS011;54230;52.402;6.276;2023-04-01T08:55:02;13.7;;;6.2;;
67344;SDS011;54230;52.402;6.276;2023-04-01T09:00:03;11.1;;;5.6;;
67344;SDS011;54230;52.402;6.276;2023-04-01T09:05:06;11.3;;;5.3;;
67344;SDS011;54230;52.402;6.276;2023-04-01T09:15:05;9.9;;;5.1;;
67344;SDS011;54230;52.402;6.276;2023-04-01T09:20:04;10.4;;;5.2;;
67344;SDS011;54230;52.402;6.276;2023-04-01T09:25:05;7.3;;;4.1;;
67344;SDS011;54230;52.402;6.276;2023-04-01T09:30:06;7.0;;;3.5;;
67344;SDS011;54230;52.402;6.276;2023-04-01T09:35:02;6.8;;;4.0;;
67344;SDS011;54230;52.402;6.276;2023-04-01T09:40:08;5.9;;;3.3;;
67344;SDS011;54230;52.402;6.276;2023-04-01T09:45:01;6.3;;;3.5;;
67344;SDS011;54230;52.402;6.276;2023-04-01T09:50:06;6.7;;;3.7;;
67344;SDS011;54230;52.402;6.276;2023-04-01T09:55:06;6.4;;;3.3;;
67344;SDS011;54230;52.402;6.276;2023-04-01T10:00:07;5.3;;;3.1;;
67344;SDS011;54230;52.402;6.276;2023-04-01T10:05:06;9.0;;;3.3;;
67344;SDS011;54230;52.402;6.276;2023-04-01T10:10:09;6.6;;;3.7;;
67344;SDS011;54230;52.402;6.276;2023-04-01T10:20:02;6.6;;;3.4;;
67344;SDS011;54230;52.402;6.276;2023-04-01T10:25:04;5.4;;;3.0;;
67344;SDS011;54230;52.402;6.276;2023-04-01T10:45:06;5.9;;;3.4;;
67344;SDS011;54230;52.402;6.276;2023-04-01T10:50:05;5.1;;;3.1;;
67344;SDS011;54230;52.402;6.276;2023-04-01T11:05:11;4.1;;;2.7;;
67344;SDS011;54230;52.402;6.276;2023-04-01T11:25:05;6.4;;;3.4;;
67344;SDS011;54230;52.402;6.276;2023-04-01T11:30:02;5.8;;;3.4;;
67344;SDS011;54230;52.402;6.276;2023-04-01T11:35:04;3.8;;;1.9;;
67344;SDS011;54230;52.402;6.276;2023-04-01T11:40:04;3.4;;;2.1;;
67344;SDS011;54230;52.402;6.276;2023-04-01T11:45:04;3.8;;;2.5;;
67344;SDS011;54230;52.402;6.276;2023-04-01T11:50:04;3.5;;;2.3;;
67344;SDS011;54230;52.402;6.276;2023-04-01T12:00:02;4.6;;;2.5;;
67344;SDS011;54230;52.402;6.276;2023-04-01T12:10:02;3.2;;;2.2;;
67344;SDS011;54230;52.402;6.276;2023-04-01T12:15:03;3.5;;;2.5;;
67344;SDS011;54230;52.402;6.276;2023-04-01T12:20:02;4.4;;;2.7;;
67344;SDS011;54230;52.402;6.276;2023-04-01T12:25:04;5.9;;;3.2;;
67344;SDS011;54230;52.402;6.276;2023-04-01T12:30:06;4.6;;;3.3;;
67344;SDS011;54230;52.402;6.276;2023-04-01T12:40:02;4.7;;;3.0;;
67344;SDS011;54230;52.402;6.276;2023-04-01T12:45:02;5.6;;;3.4;;
67344;SDS011;54230;52.402;6.276;2023-04-01T12:50:09;5.3;;;3.1;;
67344;SDS011;54230;52.402;6.276;2023-04-01T13:00:09;6.8;;;3.8;;
67344;SDS011;54230;52.402;6.276;2023-04-01T13:05:10;6.7;;;4.1;;
67344;SDS011;54230;52.402;6.276;2023-04-01T13:10:02;6.3;;;4.0;;
67344;SDS011;54230;52.402;6.276;2023-04-01T13:15:05;7.1;;;4.3;;
67344;SDS011;54230;52.402;6.276;2023-04-01T13:20:02;6.6;;;4.3;;
67344;SDS011;54230;52.402;6.276;2023-04-01T13:25:01;6.7;;;4.4;;
67344;SDS011;54230;52.402;6.276;2023-04-01T13:30:02;9.1;;;5.0;;
67344;SDS011;54230;52.402;6.276;2023-04-01T13:35:04;7.6;;;4.6;;
67344;SDS011;54230;52.402;6.276;2023-04-01T13:40:02;7.6;;;5.1;;
67344;SDS011;54230;52.402;6.276;2023-04-01T13:45:00;9.1;;;5.3;;
67344;SDS011;54230;52.402;6.276;2023-04-01T13:55:05;7.6;;;4.8;;
67344;SDS011;54230;52.402;6.276;2023-04-01T14:00:06;6.2;;;4.2;;
67344;SDS011;54230;52.402;6.276;2023-04-01T14:05:06;5.9;;;3.7;;
67344;SDS011;54230;52.402;6.276;2023-04-01T14:15:07;5.6;;;3.7;;
67344;SDS011;54230;52.402;6.276;2023-04-01T14:25:10;6.5;;;4.3;;
67344;SDS011;54230;52.402;6.276;2023-04-01T14:30:05;6.9;;;4.4;;
67344;SDS011;54230;52.402;6.276;2023-04-01T14:35:09;7.4;;;4.6;;
67344;SDS011;54230;52.402;6.276;2023-04-01T14:40:05;6.0;;;3.9;;
67344;SDS011;54230;52.402;6.276;2023-04-01T14:50:05;6.4;;;4.2;;
67344;SDS011;54230;52.402;6.276;2023-04-01T14:55:00;6.4;;;3.9;;
67344;SDS011;54230;52.402;6.276;2023-04-01T15:00:01;7.3;;;4.3;;
67344;SDS011;54230;52.402;6.276;2023-04-01T15:05:03;6.7;;;4.1;;
67344;SDS011;54230;52.402;6.276;2023-04-01T15:10:02;5.9;;;3.9;;
67344;SDS011;54230;52.402;6.276;2023-04-01T15:15:03;6.2;;;4.0;;
67344;SDS011;54230;52.402;6.276;2023-04-01T15:25:05;6.6;;;3.8;;
67344;SDS011;54230;52.402;6.276;2023-04-01T15:35:02;6.8;;;4.4;;
67344;SDS011;54230;52.402;6.276;2023-04-01T15:40:03;6.1;;;4.0;;
67344;SDS011;54230;52.402;6.276;2023-04-01T15:45:04;5.9;;;4.0;;
67344;SDS011;54230;52.402;6.276;2023-04-01T15:50:11;5.9;;;3.9;;
67344;SDS011;54230;52.402;6.276;2023-04-01T15:55:03;5.4;;;3.6;;
67344;SDS011;54230;52.402;6.276;2023-04-01T16:05:02;6.0;;;3.9;;
67344;SDS011;54230;52.402;6.276;2023-04-01T16:15:03;7.1;;;4.2;;
67344;SDS011;54230;52.402;6.276;2023-04-01T16:20:02;5.6;;;3.8;;
67344;SDS011;54230;52.402;6.276;2023-04-01T16:25:05;6.6;;;4.7;;
67344;SDS011;54230;52.402;6.276;2023-04-01T16:30:01;7.2;;;4.8;;
67344;SDS011;54230;52.402;6.276;2023-04-01T16:35:04;6.1;;;4.4;;
67344;SDS011;54230;52.402;6.276;2023-04-01T16:40:02;6.7;;;4.7;;
67344;SDS011;54230;52.402;6.276;2023-04-01T16:45:01;6.6;;;4.7;;
67344;SDS011;54230;52.402;6.276;2023-04-01T16:50:06;6.4;;;4.5;;
67344;SDS011;54230;52.402;6.276;2023-04-01T16:55:01;6.1;;;4.2;;
67344;SDS011;54230;52.402;6.276;2023-04-01T17:00:02;7.7;;;4.4;;
67344;SDS011;54230;52.402;6.276;2023-04-01T17:05:01;5.9;;;3.7;;
67344;SDS011;54230;52.402;6.276;2023-04-01T17:10:02;5.0;;;3.6;;
67344;SDS011;54230;52.402;6.276;2023-04-01T17:15:02;6.2;;;3.9;;
67344;SDS011;54230;52.402;6.276;2023-04-01T17:20:04;5.2;;;3.7;;
67344;SDS011;54230;52.402;6.276;2023-04-01T17:25:04;5.5;;;3.5;;
67344;SDS011;54230;52.402;6.276;2023-04-01T17:35:00;5.6;;;3.3;;
67344;SDS011;54230;52.402;6.276;2023-04-01T17:40:05;4.5;;;3.0;;
67344;SDS011;54230;52.402;6.276;2023-04-01T17:45:01;5.2;;;3.3;;
67344;SDS011;54230;52.402;6.276;2023-04-01T17:50:02;4.3;;;3.1;;
67344;SDS011;54230;52.402;6.276;2023-04-01T17:55:05;5.5;;;3.2;;
67344;SDS011;54230;52.402;6.276;2023-04-01T18:00:01;4.4;;;3.2;;
67344;SDS011;54230;52.402;6.276;2023-04-01T18:05:04;4.1;;;3.1;;
67344;SDS011;54230;52.402;6.276;2023-04-01T18:10:04;5.3;;;3.8;;
67344;SDS011;54230;52.402;6.276;2023-04-01T18:15:03;5.0;;;3.8;;
67344;SDS011;54230;52.402;6.276;2023-04-01T18:20:02;5.0;;;3.4;;
67344;SDS011;54230;52.402;6.276;2023-04-01T18:25:01;6.3;;;4.0;;
67344;SDS011;54230;52.402;6.276;2023-04-01T18:30:01;8.1;;;5.2;;
67344;SDS011;54230;52.402;6.276;2023-04-01T18:35:02;7.8;;;5.4;;
67344;SDS011;54230;52.402;6.276;2023-04-01T18:40:03;8.1;;;5.2;;
67344;SDS011;54230;52.402;6.276;2023-04-01T18:45:01;8.9;;;5.7;;
67344;SDS011;54230;52.402;6.276;2023-04-01T18:50:02;9.9;;;6.0;;
67344;SDS011;54230;52.402;6.276;2023-04-01T19:00:02;10.2;;;6.2;;
67344;SDS011;54230;52.402;6.276;2023-04-01T19:05:03;10.6;;;6.8;;
67344;SDS011;54230;52.402;6.276;2023-04-01T19:10:00;9.9;;;6.4;;
67344;SDS011;54230;52.402;6.276;2023-04-01T19:20:03;10.6;;;6.9;;
67344;SDS011;54230;52.402;6.276;2023-04-01T19:25:02;11.2;;;7.5;;
67344;SDS011;54230;52.402;6.276;2023-04-01T19:30:08;11.1;;;7.3;;
67344;SDS011;54230;52.402;6.276;2023-04-01T19:35:06;10.6;;;6.9;;
67344;SDS011;54230;52.402;6.276;2023-04-01T19:40:04;9.8;;;6.9;;
67344;SDS011;54230;52.402;6.276;2023-04-01T19:45:03;11.7;;;7.6;;
67344;SDS011;54230;52.402;6.276;2023-04-01T19:50:01;12.0;;;7.8;;
67344;SDS011;54230;52.402;6.276;2023-04-01T19:55:02;10.6;;;7.0;;
67344;SDS011;54230;52.402;6.276;2023-04-01T20:00:02;10.7;;;7.0;;
67344;SDS011;54230;52.402;6.276;2023-04-01T20:05:01;11.9;;;7.8;;
67344;SDS011;54230;52.402;6.276;2023-04-01T20:10:02;11.9;;;7.5;;
67344;SDS011;54230;52.402;6.276;2023-04-01T20:15:00;11.3;;;7.6;;
67344;SDS011;54230;52.402;6.276;2023-04-01T20:20:01;11.3;;;7.2;;
67344;SDS011;54230;52.402;6.276;2023-04-01T20:25:01;12.8;;;8.0;;
67344;SDS011;54230;52.402;6.276;2023-04-01T20:30:07;13.1;;;7.7;;
67344;SDS011;54230;52.402;6.276;2023-04-01T20:35:06;13.5;;;8.5;;
67344;SDS011;54230;52.402;6.276;2023-04-01T20:50:01;11.9;;;7.9;;
67344;SDS011;54230;52.402;6.276;2023-04-01T20:55:05;12.5;;;8.1;;
67344;SDS011;54230;52.402;6.276;2023-04-01T21:00:11;12.6;;;8.0;;
67344;SDS011;54230;52.402;6.276;2023-04-01T21:10:06;13.2;;;8.5;;
67344;SDS011;54230;52.402;6.276;2023-04-01T21:20:07;14.2;;;8.9;;
67344;SDS011;54230;52.402;6.276;2023-04-01T21:25:09;13.1;;;8.7;;
67344;SDS011;54230;52.402;6.276;2023-04-01T21:30:02;14.7;;;8.6;;
67344;SDS011;54230;52.402;6.276;2023-04-01T21:35:02;12.9;;;8.5;;
67344;SDS011;54230;52.402;6.276;2023-04-01T21:40:02;13.3;;;8.8;;
67344;SDS011;54230;52.402;6.276;2023-04-01T21:45:03;15.0;;;9.1;;
67344;SDS011;54230;52.402;6.276;2023-04-01T21:50:04;13.9;;;9.1;;
67344;SDS011;54230;52.402;6.276;2023-04-01T21:55:08;14.2;;;9.4;;
67344;SDS011;54230;52.402;6.276;2023-04-01T22:00:07;14.8;;;9.6;;
67344;SDS011;54230;52.402;6.276;2023-04-01T22:05:02;14.9;;;10.0;;
67344;SDS011;54230;52.402;6.276;2023-04-01T22:10:03;13.9;;;9.2;;
67344;SDS011;54230;52.402;6.276;2023-04-01T22:15:02;14.2;;;9.1;;
67344;SDS011;54230;52.402;6.276;2023-04-01T22:20:03;15.6;;;9.8;;
67344;SDS011;54230;52.402;6.276;2023-04-01T22:25:02;16.3;;;10.4;;
67344;SDS011;54230;52.402;6.276;2023-04-01T22:30:06;19.2;;;10.7;;
67344;SDS011;54230;52.402;6.276;2023-04-01T22:35:02;18.8;;;11.5;;
67344;SDS011;54230;52.402;6.276;2023-04-01T22:40:08;17.7;;;11.1;;
67344;SDS011;54230;52.402;6.276;2023-04-01T22:45:02;17.6;;;11.2;;
67344;SDS011;54230;52.402;6.276;2023-04-01T22:50:02;18.7;;;11.0;;
67344;SDS011;54230;52.402;6.276;2023-04-01T22:55:03;18.6;;;10.5;;
67344;SDS011;54230;52.402;6.276;2023-04-01T23:00:01;16.5;;;10.3;;
67344;SDS011;54230;52.402;6.276;2023-04-01T23:05:00;16.8;;;10.4;;
67344;SDS011;54230;52.402;6.276;2023-04-01T23:10:01;17.8;;;10.7;;
67344;SDS011;54230;52.402;6.276;2023-04-01T23:15:00;18.8;;;10.5;;
67344;SDS011;54230;52.402;6.276;2023-04-01T23:20:02;16.4;;;10.3;;
67344;SDS011;54230;52.402;6.276;2023-04-01T23:25:03;15.7;;;9.1;;
67344;SDS011;54230;52.402;6.276;2023-04-01T23:30:00;15.4;;;9.5;;
67344;SDS011;54230;52.402;6.276;2023-04-01T23:35:00;16.7;;;9.8;;
67344;SDS011;54230;52.402;6.276;2023-04-01T23:40:00;17.5;;;10.5;;
67344;SDS011;54230;52.402;6.276;2023-04-01T23:45:01;16.3;;;10.2;;
67344;SDS011;54230;52.402;6.276;2023-04-01T23:50:01;18.3;;;10.0;;
67344;SDS011;54230;52.402;6.276;2023-04-01T23:55:01;14.6;;;9.3;;
